sensor_id;sensor_type;location;lat;lon;timestamp;P1;durP1;ratioP1;P2;durP2;ratioP2
70165;SDS011;57541;47.408;18.822;2023-05-02T00:00:01;4.70;;;1.60;;
70165;SDS011;57541;47.408;18.822;2023-05-02T00:00:34;5.47;;;2.10;;
70165;SDS011;57541;47.408;18.822;2023-05-02T00:01:07;4.63;;;1.67;;
70165;SDS011;57541;47.408;18.822;2023-05-02T00:01:39;4.93;;;1.77;;
70165;SDS011;57541;47.408;18.822;2023-05-02T00:02:11;4.60;;;1.60;;
70165;SDS011;57541;47.408;18.822;2023-05-02T00:02:43;4.93;;;1.75;;
70165;SDS011;57541;47.408;18.822;2023-05-02T00:03:15;5.25;;;1.73;;
70165;SDS011;57541;47.408;18.822;2023-05-02T00:03:47;4.88;;;1.80;;
70165;SDS011;57541;47.408;18.822;2023-05-02T00:04:19;6.05;;;1.90;;
70165;SDS011;57541;47.408;18.822;2023-05-02T00:04:51;5.03;;;2.08;;
70165;SDS011;57541;47.408;18.822;2023-05-02T00:05:23;5.15;;;1.88;;
70165;SDS011;57541;47.408;18.822;2023-05-02T00:05:55;5.03;;;1.87;;
70165;SDS011;57541;47.408;18.822;2023-05-02T00:06:27;4.43;;;1.23;;
70165;SDS011;57541;47.408;18.822;2023-05-02T00:06:58;4.53;;;1.85;;
70165;SDS011;57541;47.408;18.822;2023-05-02T00:07:30;5.95;;;1.60;;
70165;SDS011;57541;47.408;18.822;2023-05-02T00:08:02;7.05;;;1.83;;
70165;SDS011;57541;47.408;18.822;2023-05-02T00:08:34;4.50;;;1.67;;
70165;SDS011;57541;47.408;18.822;2023-05-02T00:09:06;5.90;;;1.52;;
70165;SDS011;57541;47.408;18.822;2023-05-02T00:09:37;4.60;;;1.90;;
70165;SDS011;57541;47.408;18.822;2023-05-02T00:10:09;5.13;;;1.85;;
70165;SDS011;57541;47.408;18.822;2023-05-02T00:10:41;5.47;;;1.83;;
70165;SDS011;57541;47.408;18.822;2023-05-02T00:11:12;5.43;;;1.50;;
70165;SDS011;57541;47.408;18.822;2023-05-02T00:11:44;4.68;;;1.70;;
70165;SDS011;57541;47.408;18.822;2023-05-02T00:12:16;4.88;;;1.77;;
70165;SDS011;57541;47.408;18.822;2023-05-02T00:12:47;4.57;;;1.55;;
70165;SDS011;57541;47.408;18.822;2023-05-02T00:13:19;4.13;;;1.50;;
70165;SDS011;57541;47.408;18.822;2023-05-02T00:13:51;6.57;;;1.63;;
70165;SDS011;57541;47.408;18.822;2023-05-02T00:14:23;4.10;;;1.50;;
70165;SDS011;57541;47.408;18.822;2023-05-02T00:14:55;4.78;;;1.75;;
70165;SDS011;57541;47.408;18.822;2023-05-02T00:15:27;4.20;;;1.80;;
70165;SDS011;57541;47.408;18.822;2023-05-02T00:15:59;5.45;;;1.48;;
70165;SDS011;57541;47.408;18.822;2023-05-02T00:16:31;6.30;;;1.80;;
70165;SDS011;57541;47.408;18.822;2023-05-02T00:17:03;5.05;;;1.88;;
70165;SDS011;57541;47.408;18.822;2023-05-02T00:17:35;5.72;;;2.00;;
70165;SDS011;57541;47.408;18.822;2023-05-02T00:18:10;6.32;;;1.80;;
70165;SDS011;57541;47.408;18.822;2023-05-02T00:18:42;5.55;;;1.70;;
70165;SDS011;57541;47.408;18.822;2023-05-02T00:19:13;5.88;;;1.80;;
70165;SDS011;57541;47.408;18.822;2023-05-02T00:19:45;4.82;;;1.85;;
70165;SDS011;57541;47.408;18.822;2023-05-02T00:20:17;4.35;;;1.60;;
70165;SDS011;57541;47.408;18.822;2023-05-02T00:20:49;7.20;;;1.70;;
70165;SDS011;57541;47.408;18.822;2023-05-02T00:21:21;5.47;;;1.65;;
70165;SDS011;57541;47.408;18.822;2023-05-02T00:21:52;5.10;;;1.83;;
70165;SDS011;57541;47.408;18.822;2023-05-02T00:22:24;5.30;;;1.92;;
70165;SDS011;57541;47.408;18.822;2023-05-02T00:22:56;7.20;;;1.70;;
70165;SDS011;57541;47.408;18.822;2023-05-02T00:23:27;4.65;;;1.70;;
70165;SDS011;57541;47.408;18.822;2023-05-02T00:23:59;5.35;;;1.90;;
70165;SDS011;57541;47.408;18.822;2023-05-02T00:24:31;5.10;;;1.92;;
70165;SDS011;57541;47.408;18.822;2023-05-02T00:25:03;4.40;;;1.77;;
70165;SDS011;57541;47.408;18.822;2023-05-02T00:25:36;4.65;;;1.58;;
70165;SDS011;57541;47.408;18.822;2023-05-02T00:26:08;6.20;;;1.70;;
70165;SDS011;57541;47.408;18.822;2023-05-02T00:26:39;4.70;;;1.65;;
70165;SDS011;57541;47.408;18.822;2023-05-02T00:27:11;5.63;;;1.83;;
70165;SDS011;57541;47.408;18.822;2023-05-02T00:27:44;5.07;;;1.60;;
70165;SDS011;57541;47.408;18.822;2023-05-02T00:28:17;6.70;;;1.85;;
70165;SDS011;57541;47.408;18.822;2023-05-02T00:28:48;4.55;;;1.58;;
70165;SDS011;57541;47.408;18.822;2023-05-02T00:29:20;4.65;;;1.52;;
70165;SDS011;57541;47.408;18.822;2023-05-02T00:29:52;4.70;;;1.60;;
70165;SDS011;57541;47.408;18.822;2023-05-02T00:30:24;5.70;;;1.90;;
70165;SDS011;57541;47.408;18.822;2023-05-02T00:30:55;4.75;;;1.60;;
70165;SDS011;57541;47.408;18.822;2023-05-02T00:31:28;5.47;;;1.83;;
70165;SDS011;57541;47.408;18.822;2023-05-02T00:31:59;6.15;;;1.55;;
70165;SDS011;57541;47.408;18.822;2023-05-02T00:32:31;5.80;;;1.70;;
70165;SDS011;57541;47.408;18.822;2023-05-02T00:33:03;4.53;;;1.83;;
70165;SDS011;57541;47.408;18.822;2023-05-02T00:33:37;5.03;;;1.80;;
70165;SDS011;57541;47.408;18.822;2023-05-02T00:34:08;6.25;;;2.00;;
70165;SDS011;57541;47.408;18.822;2023-05-02T00:34:40;6.80;;;2.10;;
70165;SDS011;57541;47.408;18.822;2023-05-02T00:35:12;5.13;;;1.85;;
70165;SDS011;57541;47.408;18.822;2023-05-02T00:35:43;4.82;;;1.75;;
70165;SDS011;57541;47.408;18.822;2023-05-02T00:36:16;4.43;;;1.70;;
70165;SDS011;57541;47.408;18.822;2023-05-02T00:36:49;5.18;;;1.80;;
70165;SDS011;57541;47.408;18.822;2023-05-02T00:37:20;4.80;;;1.70;;
70165;SDS011;57541;47.408;18.822;2023-05-02T00:37:58;5.13;;;2.00;;
70165;SDS011;57541;47.408;18.822;2023-05-02T00:38:29;5.18;;;1.67;;
70165;SDS011;57541;47.408;18.822;2023-05-02T00:39:01;4.95;;;1.85;;
70165;SDS011;57541;47.408;18.822;2023-05-02T00:39:34;5.28;;;1.98;;
70165;SDS011;57541;47.408;18.822;2023-05-02T00:40:06;5.07;;;2.03;;
70165;SDS011;57541;47.408;18.822;2023-05-02T00:40:45;6.78;;;1.75;;
70165;SDS011;57541;47.408;18.822;2023-05-02T00:41:18;4.85;;;1.75;;
70165;SDS011;57541;47.408;18.822;2023-05-02T00:41:56;5.18;;;1.80;;
70165;SDS011;57541;47.408;18.822;2023-05-02T00:42:32;5.32;;;1.77;;
70165;SDS011;57541;47.408;18.822;2023-05-02T00:43:06;4.60;;;1.70;;
70165;SDS011;57541;47.408;18.822;2023-05-02T00:43:37;5.33;;;2.17;;
70165;SDS011;57541;47.408;18.822;2023-05-02T00:44:12;4.72;;;1.50;;
70165;SDS011;57541;47.408;18.822;2023-05-02T00:44:44;5.35;;;2.00;;
70165;SDS011;57541;47.408;18.822;2023-05-02T00:45:17;5.25;;;2.00;;
70165;SDS011;57541;47.408;18.822;2023-05-02T00:45:48;6.30;;;1.77;;
70165;SDS011;57541;47.408;18.822;2023-05-02T00:46:21;5.90;;;2.08;;
70165;SDS011;57541;47.408;18.822;2023-05-02T00:46:53;4.47;;;1.77;;
70165;SDS011;57541;47.408;18.822;2023-05-02T00:47:25;6.40;;;1.88;;
70165;SDS011;57541;47.408;18.822;2023-05-02T00:47:57;8.07;;;2.00;;
70165;SDS011;57541;47.408;18.822;2023-05-02T00:48:29;4.50;;;1.70;;
70165;SDS011;57541;47.408;18.822;2023-05-02T00:49:01;5.77;;;1.77;;
70165;SDS011;57541;47.408;18.822;2023-05-02T00:49:33;5.50;;;1.85;;
70165;SDS011;57541;47.408;18.822;2023-05-02T00:50:04;5.22;;;1.67;;
70165;SDS011;57541;47.408;18.822;2023-05-02T00:50:40;4.55;;;2.00;;
70165;SDS011;57541;47.408;18.822;2023-05-02T00:51:13;6.57;;;1.92;;
70165;SDS011;57541;47.408;18.822;2023-05-02T00:51:45;5.18;;;1.80;;
70165;SDS011;57541;47.408;18.822;2023-05-02T00:52:17;5.72;;;1.88;;
70165;SDS011;57541;47.408;18.822;2023-05-02T00:52:48;5.22;;;1.77;;
70165;SDS011;57541;47.408;18.822;2023-05-02T00:53:20;5.10;;;1.92;;
70165;SDS011;57541;47.408;18.822;2023-05-02T00:53:52;5.38;;;1.98;;
70165;SDS011;57541;47.408;18.822;2023-05-02T00:54:24;7.93;;;2.20;;
70165;SDS011;57541;47.408;18.822;2023-05-02T00:54:55;5.18;;;1.73;;
70165;SDS011;57541;47.408;18.822;2023-05-02T00:55:27;5.10;;;1.80;;
70165;SDS011;57541;47.408;18.822;2023-05-02T00:55:59;5.20;;;2.10;;
70165;SDS011;57541;47.408;18.822;2023-05-02T00:56:35;4.75;;;2.20;;
70165;SDS011;57541;47.408;18.822;2023-05-02T00:57:07;5.15;;;2.10;;
70165;SDS011;57541;47.408;18.822;2023-05-02T00:57:38;5.40;;;1.88;;
70165;SDS011;57541;47.408;18.822;2023-05-02T00:58:11;6.85;;;1.73;;
70165;SDS011;57541;47.408;18.822;2023-05-02T00:58:45;5.50;;;1.85;;
70165;SDS011;57541;47.408;18.822;2023-05-02T00:59:17;5.72;;;1.80;;
70165;SDS011;57541;47.408;18.822;2023-05-02T00:59:49;5.57;;;2.20;;
70165;SDS011;57541;47.408;18.822;2023-05-02T01:00:22;5.78;;;2.17;;
70165;SDS011;57541;47.408;18.822;2023-05-02T01:02:03;5.72;;;2.13;;
70165;SDS011;57541;47.408;18.822;2023-05-02T01:03:04;5.90;;;2.30;;
70165;SDS011;57541;47.408;18.822;2023-05-02T01:04:51;4.85;;;2.05;;
70165;SDS011;57541;47.408;18.822;2023-05-02T01:05:43;5.85;;;2.22;;
70165;SDS011;57541;47.408;18.822;2023-05-02T01:07:22;5.00;;;1.92;;
70165;SDS011;57541;47.408;18.822;2023-05-02T01:08:06;5.20;;;2.20;;
70165;SDS011;57541;47.408;18.822;2023-05-02T01:08:45;5.50;;;2.13;;
70165;SDS011;57541;47.408;18.822;2023-05-02T01:11:15;6.20;;;1.92;;
70165;SDS011;57541;47.408;18.822;2023-05-02T01:11:58;5.13;;;1.98;;
70165;SDS011;57541;47.408;18.822;2023-05-02T01:12:41;6.00;;;1.75;;
70165;SDS011;57541;47.408;18.822;2023-05-02T01:13:19;4.22;;;1.80;;
70165;SDS011;57541;47.408;18.822;2023-05-02T01:13:53;7.25;;;2.10;;
70165;SDS011;57541;47.408;18.822;2023-05-02T01:14:29;6.45;;;2.00;;
70165;SDS011;57541;47.408;18.822;2023-05-02T01:15:05;6.03;;;2.17;;
70165;SDS011;57541;47.408;18.822;2023-05-02T01:15:40;8.43;;;2.17;;
70165;SDS011;57541;47.408;18.822;2023-05-02T01:16:13;6.95;;;2.75;;
70165;SDS011;57541;47.408;18.822;2023-05-02T01:16:47;7.35;;;2.25;;
70165;SDS011;57541;47.408;18.822;2023-05-02T01:17:21;5.30;;;1.95;;
70165;SDS011;57541;47.408;18.822;2023-05-02T01:17:59;5.32;;;2.20;;
70165;SDS011;57541;47.408;18.822;2023-05-02T01:18:34;6.32;;;1.90;;
70165;SDS011;57541;47.408;18.822;2023-05-02T01:19:11;5.25;;;2.22;;
70165;SDS011;57541;47.408;18.822;2023-05-02T01:19:54;6.18;;;2.38;;
70165;SDS011;57541;47.408;18.822;2023-05-02T01:20:29;5.10;;;2.10;;
70165;SDS011;57541;47.408;18.822;2023-05-02T01:21:05;6.47;;;2.40;;
70165;SDS011;57541;47.408;18.822;2023-05-02T01:21:39;5.15;;;2.22;;
70165;SDS011;57541;47.408;18.822;2023-05-02T01:22:12;5.95;;;2.08;;
70165;SDS011;57541;47.408;18.822;2023-05-02T01:22:46;5.75;;;2.05;;
70165;SDS011;57541;47.408;18.822;2023-05-02T01:23:24;5.53;;;2.10;;
70165;SDS011;57541;47.408;18.822;2023-05-02T01:24:04;6.05;;;1.98;;
70165;SDS011;57541;47.408;18.822;2023-05-02T01:25:32;5.90;;;2.22;;
70165;SDS011;57541;47.408;18.822;2023-05-02T01:26:23;5.13;;;2.17;;
70165;SDS011;57541;47.408;18.822;2023-05-02T01:29:05;5.10;;;2.15;;
70165;SDS011;57541;47.408;18.822;2023-05-02T01:29:38;5.93;;;2.10;;
70165;SDS011;57541;47.408;18.822;2023-05-02T01:30:11;5.80;;;2.38;;
70165;SDS011;57541;47.408;18.822;2023-05-02T01:30:45;5.57;;;2.15;;
70165;SDS011;57541;47.408;18.822;2023-05-02T01:31:20;5.18;;;2.13;;
70165;SDS011;57541;47.408;18.822;2023-05-02T01:31:54;5.38;;;1.98;;
70165;SDS011;57541;47.408;18.822;2023-05-02T01:32:28;5.88;;;2.28;;
70165;SDS011;57541;47.408;18.822;2023-05-02T01:33:03;7.07;;;2.58;;
70165;SDS011;57541;47.408;18.822;2023-05-02T01:33:37;5.85;;;2.22;;
70165;SDS011;57541;47.408;18.822;2023-05-02T01:34:10;7.50;;;2.20;;
70165;SDS011;57541;47.408;18.822;2023-05-02T01:34:42;4.68;;;2.10;;
70165;SDS011;57541;47.408;18.822;2023-05-02T01:35:17;5.60;;;2.53;;
70165;SDS011;57541;47.408;18.822;2023-05-02T01:35:50;6.15;;;1.98;;
70165;SDS011;57541;47.408;18.822;2023-05-02T01:36:24;6.13;;;2.33;;
70165;SDS011;57541;47.408;18.822;2023-05-02T01:36:58;5.93;;;2.25;;
70165;SDS011;57541;47.408;18.822;2023-05-02T01:37:32;5.68;;;2.28;;
70165;SDS011;57541;47.408;18.822;2023-05-02T01:38:05;5.72;;;1.90;;
70165;SDS011;57541;47.408;18.822;2023-05-02T01:38:37;5.60;;;2.25;;
70165;SDS011;57541;47.408;18.822;2023-05-02T01:39:13;5.53;;;2.30;;
70165;SDS011;57541;47.408;18.822;2023-05-02T01:39:49;6.53;;;2.90;;
70165;SDS011;57541;47.408;18.822;2023-05-02T01:40:22;5.32;;;2.13;;
70165;SDS011;57541;47.408;18.822;2023-05-02T01:40:56;6.43;;;2.35;;
70165;SDS011;57541;47.408;18.822;2023-05-02T01:41:33;6.25;;;2.70;;
70165;SDS011;57541;47.408;18.822;2023-05-02T01:42:06;5.60;;;2.30;;
70165;SDS011;57541;47.408;18.822;2023-05-02T01:42:38;5.15;;;2.40;;
70165;SDS011;57541;47.408;18.822;2023-05-02T01:43:12;5.28;;;2.33;;
70165;SDS011;57541;47.408;18.822;2023-05-02T01:43:45;6.05;;;2.10;;
70165;SDS011;57541;47.408;18.822;2023-05-02T01:44:21;4.57;;;2.25;;
70165;SDS011;57541;47.408;18.822;2023-05-02T01:44:54;5.78;;;2.40;;
70165;SDS011;57541;47.408;18.822;2023-05-02T01:45:26;5.63;;;2.00;;
70165;SDS011;57541;47.408;18.822;2023-05-02T01:45:59;5.65;;;2.03;;
70165;SDS011;57541;47.408;18.822;2023-05-02T01:46:35;5.53;;;2.33;;
70165;SDS011;57541;47.408;18.822;2023-05-02T01:47:08;6.07;;;2.40;;
70165;SDS011;57541;47.408;18.822;2023-05-02T01:47:41;7.30;;;2.30;;
70165;SDS011;57541;47.408;18.822;2023-05-02T01:48:15;5.25;;;2.22;;
70165;SDS011;57541;47.408;18.822;2023-05-02T01:48:49;5.20;;;2.20;;
70165;SDS011;57541;47.408;18.822;2023-05-02T01:49:23;4.97;;;2.50;;
70165;SDS011;57541;47.408;18.822;2023-05-02T01:49:56;5.60;;;2.17;;
70165;SDS011;57541;47.408;18.822;2023-05-02T01:50:30;6.70;;;2.30;;
70165;SDS011;57541;47.408;18.822;2023-05-02T01:51:02;6.50;;;2.40;;
70165;SDS011;57541;47.408;18.822;2023-05-02T01:51:36;5.85;;;2.47;;
70165;SDS011;57541;47.408;18.822;2023-05-02T01:52:14;6.72;;;2.72;;
70165;SDS011;57541;47.408;18.822;2023-05-02T01:52:47;5.45;;;2.63;;
70165;SDS011;57541;47.408;18.822;2023-05-02T01:53:21;9.00;;;2.97;;
70165;SDS011;57541;47.408;18.822;2023-05-02T01:53:55;5.22;;;2.58;;
70165;SDS011;57541;47.408;18.822;2023-05-02T01:54:29;5.85;;;2.50;;
70165;SDS011;57541;47.408;18.822;2023-05-02T01:55:04;5.43;;;2.40;;
70165;SDS011;57541;47.408;18.822;2023-05-02T01:55:42;5.88;;;2.53;;
70165;SDS011;57541;47.408;18.822;2023-05-02T01:56:16;6.57;;;2.40;;
70165;SDS011;57541;47.408;18.822;2023-05-02T01:56:50;5.33;;;2.67;;
70165;SDS011;57541;47.408;18.822;2023-05-02T01:57:22;7.32;;;2.50;;
70165;SDS011;57541;47.408;18.822;2023-05-02T01:57:54;5.28;;;2.60;;
70165;SDS011;57541;47.408;18.822;2023-05-02T01:58:28;5.53;;;2.70;;
70165;SDS011;57541;47.408;18.822;2023-05-02T01:59:03;6.97;;;2.60;;
70165;SDS011;57541;47.408;18.822;2023-05-02T01:59:36;6.55;;;2.58;;
70165;SDS011;57541;47.408;18.822;2023-05-02T02:00:11;5.93;;;2.83;;
70165;SDS011;57541;47.408;18.822;2023-05-02T02:00:44;7.45;;;2.28;;
70165;SDS011;57541;47.408;18.822;2023-05-02T02:01:16;5.70;;;2.40;;
70165;SDS011;57541;47.408;18.822;2023-05-02T02:01:50;5.75;;;2.80;;
70165;SDS011;57541;47.408;18.822;2023-05-02T02:02:25;7.37;;;2.57;;
70165;SDS011;57541;47.408;18.822;2023-05-02T02:02:58;6.30;;;2.53;;
70165;SDS011;57541;47.408;18.822;2023-05-02T02:03:30;5.80;;;2.72;;
70165;SDS011;57541;47.408;18.822;2023-05-02T02:04:02;5.85;;;2.45;;
70165;SDS011;57541;47.408;18.822;2023-05-02T02:04:35;6.85;;;2.67;;
70165;SDS011;57541;47.408;18.822;2023-05-02T02:05:08;7.47;;;2.53;;
70165;SDS011;57541;47.408;18.822;2023-05-02T02:05:41;6.32;;;2.78;;
70165;SDS011;57541;47.408;18.822;2023-05-02T02:06:14;7.50;;;2.95;;
70165;SDS011;57541;47.408;18.822;2023-05-02T02:06:47;7.07;;;3.20;;
70165;SDS011;57541;47.408;18.822;2023-05-02T02:07:23;6.00;;;2.78;;
70165;SDS011;57541;47.408;18.822;2023-05-02T02:07:54;5.37;;;2.70;;
70165;SDS011;57541;47.408;18.822;2023-05-02T02:08:26;6.32;;;2.50;;
70165;SDS011;57541;47.408;18.822;2023-05-02T02:08:58;6.18;;;2.90;;
70165;SDS011;57541;47.408;18.822;2023-05-02T02:09:30;6.30;;;3.08;;
70165;SDS011;57541;47.408;18.822;2023-05-02T02:10:01;5.95;;;2.70;;
70165;SDS011;57541;47.408;18.822;2023-05-02T02:10:39;5.53;;;2.58;;
70165;SDS011;57541;47.408;18.822;2023-05-02T02:11:15;7.68;;;2.90;;
70165;SDS011;57541;47.408;18.822;2023-05-02T02:11:52;5.47;;;2.40;;
70165;SDS011;57541;47.408;18.822;2023-05-02T02:12:44;5.55;;;2.47;;
70165;SDS011;57541;47.408;18.822;2023-05-02T02:13:26;7.07;;;2.75;;
70165;SDS011;57541;47.408;18.822;2023-05-02T02:14:05;5.43;;;2.50;;
70165;SDS011;57541;47.408;18.822;2023-05-02T02:14:45;5.93;;;2.40;;
70165;SDS011;57541;47.408;18.822;2023-05-02T02:15:24;6.10;;;2.78;;
70165;SDS011;57541;47.408;18.822;2023-05-02T02:15:59;5.55;;;2.45;;
70165;SDS011;57541;47.408;18.822;2023-05-02T02:16:35;5.40;;;2.60;;
70165;SDS011;57541;47.408;18.822;2023-05-02T02:17:12;6.25;;;2.85;;
70165;SDS011;57541;47.408;18.822;2023-05-02T02:18:34;5.72;;;2.42;;
70165;SDS011;57541;47.408;18.822;2023-05-02T02:18:42;7.65;;;3.08;;
70165;SDS011;57541;47.408;18.822;2023-05-02T02:19:16;5.40;;;2.80;;
70165;SDS011;57541;47.408;18.822;2023-05-02T02:19:48;6.75;;;3.00;;
70165;SDS011;57541;47.408;18.822;2023-05-02T02:20:24;6.67;;;2.73;;
70165;SDS011;57541;47.408;18.822;2023-05-02T02:20:59;7.22;;;3.08;;
70165;SDS011;57541;47.408;18.822;2023-05-02T02:21:33;6.72;;;3.03;;
70165;SDS011;57541;47.408;18.822;2023-05-02T02:22:06;6.05;;;2.63;;
70165;SDS011;57541;47.408;18.822;2023-05-02T02:22:39;6.18;;;2.63;;
70165;SDS011;57541;47.408;18.822;2023-05-02T02:23:13;6.10;;;2.70;;
70165;SDS011;57541;47.408;18.822;2023-05-02T02:23:46;6.00;;;2.95;;
70165;SDS011;57541;47.408;18.822;2023-05-02T02:24:21;6.93;;;2.83;;
70165;SDS011;57541;47.408;18.822;2023-05-02T02:24:54;6.78;;;2.75;;
70165;SDS011;57541;47.408;18.822;2023-05-02T02:25:27;6.75;;;2.70;;
70165;SDS011;57541;47.408;18.822;2023-05-02T02:26:00;5.97;;;2.90;;
70165;SDS011;57541;47.408;18.822;2023-05-02T02:26:33;6.00;;;3.20;;
70165;SDS011;57541;47.408;18.822;2023-05-02T02:27:06;7.93;;;2.75;;
70165;SDS011;57541;47.408;18.822;2023-05-02T02:27:38;7.25;;;2.90;;
70165;SDS011;57541;47.408;18.822;2023-05-02T02:28:11;8.63;;;2.70;;
70165;SDS011;57541;47.408;18.822;2023-05-02T02:28:43;6.07;;;2.75;;
70165;SDS011;57541;47.408;18.822;2023-05-02T02:29:15;6.50;;;2.60;;
70165;SDS011;57541;47.408;18.822;2023-05-02T02:29:46;6.13;;;2.90;;
70165;SDS011;57541;47.408;18.822;2023-05-02T02:30:18;5.35;;;2.60;;
70165;SDS011;57541;47.408;18.822;2023-05-02T02:30:50;5.55;;;2.58;;
70165;SDS011;57541;47.408;18.822;2023-05-02T02:31:22;5.30;;;2.83;;
70165;SDS011;57541;47.408;18.822;2023-05-02T02:31:56;5.57;;;2.78;;
70165;SDS011;57541;47.408;18.822;2023-05-02T02:32:27;6.32;;;3.20;;
70165;SDS011;57541;47.408;18.822;2023-05-02T02:32:59;6.40;;;2.60;;
70165;SDS011;57541;47.408;18.822;2023-05-02T02:33:31;6.57;;;2.75;;
70165;SDS011;57541;47.408;18.822;2023-05-02T02:34:03;6.38;;;3.17;;
70165;SDS011;57541;47.408;18.822;2023-05-02T02:34:35;6.13;;;2.72;;
70165;SDS011;57541;47.408;18.822;2023-05-02T02:35:07;7.38;;;3.08;;
70165;SDS011;57541;47.408;18.822;2023-05-02T02:35:41;6.10;;;2.70;;
70165;SDS011;57541;47.408;18.822;2023-05-02T02:36:17;7.22;;;3.08;;
70165;SDS011;57541;47.408;18.822;2023-05-02T02:37:00;5.93;;;2.90;;
70165;SDS011;57541;47.408;18.822;2023-05-02T02:37:40;5.60;;;2.80;;
70165;SDS011;57541;47.408;18.822;2023-05-02T02:38:29;6.57;;;2.90;;
70165;SDS011;57541;47.408;18.822;2023-05-02T02:41:22;5.75;;;2.65;;
70165;SDS011;57541;47.408;18.822;2023-05-02T02:43:01;7.30;;;2.95;;
70165;SDS011;57541;47.408;18.822;2023-05-02T02:44:37;7.13;;;3.22;;
70165;SDS011;57541;47.408;18.822;2023-05-02T02:46:54;5.93;;;3.08;;
70165;SDS011;57541;47.408;18.822;2023-05-02T02:47:49;8.57;;;3.00;;
70165;SDS011;57541;47.408;18.822;2023-05-02T02:49:12;6.03;;;2.92;;
70165;SDS011;57541;47.408;18.822;2023-05-02T02:51:45;6.25;;;3.20;;
70165;SDS011;57541;47.408;18.822;2023-05-02T02:53:17;8.03;;;3.30;;
70165;SDS011;57541;47.408;18.822;2023-05-02T02:55:12;8.02;;;3.00;;
70165;SDS011;57541;47.408;18.822;2023-05-02T02:55:56;6.10;;;3.05;;
70165;SDS011;57541;47.408;18.822;2023-05-02T02:56:38;6.30;;;3.20;;
70165;SDS011;57541;47.408;18.822;2023-05-02T02:57:59;7.35;;;3.17;;
70165;SDS011;57541;47.408;18.822;2023-05-02T02:59:31;7.95;;;3.03;;
70165;SDS011;57541;47.408;18.822;2023-05-02T03:00:48;6.60;;;3.33;;
70165;SDS011;57541;47.408;18.822;2023-05-02T03:01:20;6.63;;;3.08;;
70165;SDS011;57541;47.408;18.822;2023-05-02T03:02:16;5.47;;;2.90;;
70165;SDS011;57541;47.408;18.822;2023-05-02T03:02:48;6.60;;;3.22;;
70165;SDS011;57541;47.408;18.822;2023-05-02T03:03:21;6.20;;;3.50;;
70165;SDS011;57541;47.408;18.822;2023-05-02T03:03:59;6.38;;;3.40;;
70165;SDS011;57541;47.408;18.822;2023-05-02T03:04:35;5.60;;;2.90;;
70165;SDS011;57541;47.408;18.822;2023-05-02T03:05:09;6.88;;;3.25;;
70165;SDS011;57541;47.408;18.822;2023-05-02T03:05:42;6.65;;;3.38;;
70165;SDS011;57541;47.408;18.822;2023-05-02T03:06:15;7.38;;;3.38;;
70165;SDS011;57541;47.408;18.822;2023-05-02T03:06:48;6.73;;;3.37;;
70165;SDS011;57541;47.408;18.822;2023-05-02T03:07:20;5.72;;;2.95;;
70165;SDS011;57541;47.408;18.822;2023-05-02T03:07:52;7.25;;;3.25;;
70165;SDS011;57541;47.408;18.822;2023-05-02T03:08:23;5.88;;;2.70;;
70165;SDS011;57541;47.408;18.822;2023-05-02T03:08:55;6.00;;;3.42;;
70165;SDS011;57541;47.408;18.822;2023-05-02T03:09:27;5.68;;;2.50;;
70165;SDS011;57541;47.408;18.822;2023-05-02T03:10:03;7.53;;;3.42;;
70165;SDS011;57541;47.408;18.822;2023-05-02T03:10:36;6.20;;;3.20;;
70165;SDS011;57541;47.408;18.822;2023-05-02T03:11:08;6.20;;;3.45;;
70165;SDS011;57541;47.408;18.822;2023-05-02T03:11:40;7.13;;;3.15;;
70165;SDS011;57541;47.408;18.822;2023-05-02T03:12:12;6.00;;;3.10;;
70165;SDS011;57541;47.408;18.822;2023-05-02T03:12:44;8.43;;;3.15;;
70165;SDS011;57541;47.408;18.822;2023-05-02T03:13:15;6.97;;;3.35;;
70165;SDS011;57541;47.408;18.822;2023-05-02T03:13:47;5.97;;;3.60;;
70165;SDS011;57541;47.408;18.822;2023-05-02T03:14:19;6.40;;;3.45;;
70165;SDS011;57541;47.408;18.822;2023-05-02T03:14:51;6.88;;;3.25;;
70165;SDS011;57541;47.408;18.822;2023-05-02T03:16:53;7.05;;;3.60;;
70165;SDS011;57541;47.408;18.822;2023-05-02T03:17:26;6.22;;;3.10;;
70165;SDS011;57541;47.408;18.822;2023-05-02T03:17:58;6.77;;;3.70;;
70165;SDS011;57541;47.408;18.822;2023-05-02T03:18:30;6.50;;;3.50;;
70165;SDS011;57541;47.408;18.822;2023-05-02T03:19:02;9.05;;;3.65;;
70165;SDS011;57541;47.408;18.822;2023-05-02T03:19:34;7.07;;;3.65;;
70165;SDS011;57541;47.408;18.822;2023-05-02T03:20:06;8.63;;;3.55;;
70165;SDS011;57541;47.408;18.822;2023-05-02T03:20:38;7.18;;;3.70;;
70165;SDS011;57541;47.408;18.822;2023-05-02T03:21:10;7.10;;;3.80;;
70165;SDS011;57541;47.408;18.822;2023-05-02T03:21:41;6.50;;;3.28;;
70165;SDS011;57541;47.408;18.822;2023-05-02T03:22:13;7.63;;;3.50;;
70165;SDS011;57541;47.408;18.822;2023-05-02T03:22:45;9.63;;;3.58;;
70165;SDS011;57541;47.408;18.822;2023-05-02T03:23:16;8.80;;;3.80;;
70165;SDS011;57541;47.408;18.822;2023-05-02T03:23:48;6.97;;;3.33;;
70165;SDS011;57541;47.408;18.822;2023-05-02T03:24:20;6.20;;;3.40;;
70165;SDS011;57541;47.408;18.822;2023-05-02T03:24:52;6.65;;;3.70;;
70165;SDS011;57541;47.408;18.822;2023-05-02T03:25:23;6.40;;;3.47;;
70165;SDS011;57541;47.408;18.822;2023-05-02T03:25:55;6.95;;;3.47;;
70165;SDS011;57541;47.408;18.822;2023-05-02T03:26:27;6.18;;;3.30;;
70165;SDS011;57541;47.408;18.822;2023-05-02T03:26:58;7.40;;;3.50;;
70165;SDS011;57541;47.408;18.822;2023-05-02T03:27:30;6.32;;;3.22;;
70165;SDS011;57541;47.408;18.822;2023-05-02T03:28:02;5.97;;;3.65;;
70165;SDS011;57541;47.408;18.822;2023-05-02T03:28:34;5.80;;;3.10;;
70165;SDS011;57541;47.408;18.822;2023-05-02T03:29:05;6.45;;;3.05;;
70165;SDS011;57541;47.408;18.822;2023-05-02T03:29:37;8.27;;;3.30;;
70165;SDS011;57541;47.408;18.822;2023-05-02T03:30:09;6.55;;;3.45;;
70165;SDS011;57541;47.408;18.822;2023-05-02T03:30:41;6.93;;;3.60;;
70165;SDS011;57541;47.408;18.822;2023-05-02T03:31:12;6.13;;;3.20;;
70165;SDS011;57541;47.408;18.822;2023-05-02T03:31:47;6.97;;;3.38;;
70165;SDS011;57541;47.408;18.822;2023-05-02T03:32:18;6.97;;;3.17;;
70165;SDS011;57541;47.408;18.822;2023-05-02T03:32:50;5.85;;;3.28;;
70165;SDS011;57541;47.408;18.822;2023-05-02T03:33:22;7.03;;;3.60;;
70165;SDS011;57541;47.408;18.822;2023-05-02T03:33:54;6.73;;;3.37;;
70165;SDS011;57541;47.408;18.822;2023-05-02T03:34:25;7.70;;;3.17;;
70165;SDS011;57541;47.408;18.822;2023-05-02T03:34:57;6.93;;;3.38;;
70165;SDS011;57541;47.408;18.822;2023-05-02T03:35:30;7.70;;;3.75;;
70165;SDS011;57541;47.408;18.822;2023-05-02T03:36:02;8.57;;;3.40;;
70165;SDS011;57541;47.408;18.822;2023-05-02T03:36:33;6.55;;;3.60;;
70165;SDS011;57541;47.408;18.822;2023-05-02T03:37:05;7.53;;;3.40;;
70165;SDS011;57541;47.408;18.822;2023-05-02T03:37:37;6.28;;;3.22;;
70165;SDS011;57541;47.408;18.822;2023-05-02T03:38:08;7.32;;;3.70;;
70165;SDS011;57541;47.408;18.822;2023-05-02T03:38:40;6.43;;;3.30;;
70165;SDS011;57541;47.408;18.822;2023-05-02T03:39:12;9.43;;;3.63;;
70165;SDS011;57541;47.408;18.822;2023-05-02T03:39:44;6.03;;;3.45;;
70165;SDS011;57541;47.408;18.822;2023-05-02T03:40:16;8.23;;;3.70;;
70165;SDS011;57541;47.408;18.822;2023-05-02T03:40:52;5.75;;;3.50;;
70165;SDS011;57541;47.408;18.822;2023-05-02T03:41:26;8.80;;;3.60;;
70165;SDS011;57541;47.408;18.822;2023-05-02T03:41:58;7.10;;;3.80;;
70165;SDS011;57541;47.408;18.822;2023-05-02T03:42:30;8.18;;;3.75;;
70165;SDS011;57541;47.408;18.822;2023-05-02T03:43:02;7.63;;;3.47;;
70165;SDS011;57541;47.408;18.822;2023-05-02T03:43:33;8.95;;;3.55;;